createdAt,value
2023-04-01T00:01:01.906Z,99.90
2023-04-01T00:03:31.865Z,99.90
2023-04-01T00:06:01.256Z,99.90
2023-04-01T00:08:29.674Z,99.90
2023-04-01T00:10:58.527Z,99.90
2023-04-01T00:13:27.767Z,99.90
2023-04-01T00:15:56.638Z,99.70
2023-04-01T00:18:26.163Z,99.80
2023-04-01T00:20:55.812Z,99.50
2023-04-01T00:23:24.740Z,99.20
2023-04-01T00:25:52.906Z,99.40
2023-04-01T00:28:22.032Z,99.40
2023-04-01T00:30:50.427Z,99.30
2023-04-01T00:33:18.692Z,99.50
2023-04-01T00:35:47.023Z,99.30
2023-04-01T00:38:17.958Z,99.50
2023-04-01T00:40:47.836Z,99.60
2023-04-01T00:43:18.878Z,99.80
2023-04-01T00:45:48.676Z,99.70
2023-04-01T00:48:19.028Z,99.90
2023-04-01T00:50:51.009Z,99.90
2023-04-01T00:53:22.355Z,99.90
2023-04-01T00:55:57.499Z,99.90
2023-04-01T00:58:29.224Z,99.90
2023-04-01T01:00:58.749Z,99.90
2023-04-01T01:03:27.082Z,99.90
2023-04-01T01:06:24.725Z,99.90
2023-04-01T01:09:16.473Z,99.90
2023-04-01T01:11:49.962Z,99.90
2023-04-01T01:14:36.054Z,99.90
2023-04-01T01:17:12.307Z,99.90
2023-04-01T01:20:26.377Z,99.90
2023-04-01T01:23:17.458Z,99.90
2023-04-01T01:25:59.265Z,99.90
2023-04-01T01:28:38.966Z,99.90
2023-04-01T01:31:17.586Z,99.90
2023-04-01T01:33:54.917Z,99.90
2023-04-01T01:36:28.752Z,99.90
2023-04-01T01:38:58.054Z,99.90
2023-04-01T01:41:28.723Z,99.90
2023-04-01T01:44:00.755Z,99.60
2023-04-01T01:46:31.640Z,99.70
2023-04-01T01:49:01.313Z,99.80
2023-04-01T01:51:31.111Z,99.60
2023-04-01T01:53:59.495Z,99.50
2023-04-01T01:56:30.693Z,99.60
2023-04-01T01:59:02.272Z,99.50
2023-04-01T02:01:33.646Z,99.50
2023-04-01T02:04:11.548Z,99.60
2023-04-01T02:06:47.509Z,99.60
2023-04-01T02:09:16.278Z,99.50
2023-04-01T02:11:48.258Z,99.40
2023-04-01T02:14:21.830Z,99.10
2023-04-01T02:16:56.053Z,99.40
2023-04-01T02:19:27.063Z,99.10
2023-04-01T02:22:01.460Z,99.10
2023-04-01T02:24:32.992Z,99.20
2023-04-01T02:27:01.122Z,99.10
2023-04-01T02:29:30.572Z,99.20
2023-04-01T02:32:00.279Z,99.10
2023-04-01T02:34:29.087Z,99.10
2023-04-01T02:37:00.231Z,99.10
2023-04-01T02:39:28.517Z,99.20
2023-04-01T02:41:56.632Z,99.30
2023-04-01T02:44:24.721Z,99.40
2023-04-01T02:46:53.787Z,99.50
2023-04-01T02:49:22.492Z,99.30
2023-04-01T02:51:50.556Z,99.20
2023-04-01T02:54:20.251Z,99.20
2023-04-01T02:56:48.567Z,99.30
2023-04-01T02:59:16.641Z,99.40
2023-04-01T03:01:44.840Z,99.30
2023-04-01T03:04:12.979Z,99.50
2023-04-01T03:06:41.300Z,99.50
2023-04-01T03:09:09.297Z,99.60
2023-04-01T03:11:38.710Z,99.60
2023-04-01T03:14:08.020Z,99.70
2023-04-01T03:16:36.320Z,99.80
2023-04-01T03:19:04.982Z,99.60
2023-04-01T03:21:33.254Z,99.80
2023-04-01T03:24:02.434Z,99.90
2023-04-01T03:26:31.209Z,99.90
2023-04-01T03:29:01.024Z,99.90
2023-04-01T03:31:29.212Z,99.90
2023-04-01T03:33:58.924Z,99.90
2023-04-01T03:36:27.088Z,99.90
2023-04-01T03:38:55.419Z,99.90
2023-04-01T03:41:35.079Z,99.90
2023-04-01T03:44:04.446Z,99.90
2023-04-01T03:46:32.694Z,99.90
2023-04-01T03:49:01.003Z,99.90
2023-04-01T03:51:29.070Z,99.90
2023-04-01T03:53:57.382Z,99.90
2023-04-01T03:56:25.817Z,99.90
2023-04-01T03:58:53.829Z,99.90
2023-04-01T04:01:24.524Z,99.90
2023-04-01T04:03:56.416Z,99.90
2023-04-01T04:06:25.978Z,99.90
2023-04-01T04:08:54.566Z,99.90
2023-04-01T04:11:23.472Z,99.90
2023-04-01T04:13:54.721Z,99.90
2023-04-01T04:16:25.097Z,99.90
2023-04-01T04:19:00.613Z,99.60
2023-04-01T04:21:28.786Z,99.60
2023-04-01T04:23:57.097Z,99.70
2023-04-01T04:26:25.551Z,99.80
2023-04-01T04:29:01.575Z,99.70
2023-04-01T04:31:31.151Z,99.50
2023-04-01T04:34:02.390Z,99.60
2023-04-01T04:36:33.837Z,99.50
2023-04-01T04:39:03.240Z,99.70
2023-04-01T04:41:34.794Z,99.60
2023-04-01T04:44:04.190Z,99.60
2023-04-01T04:46:34.138Z,99.70
2023-04-01T04:49:11.985Z,99.80
2023-04-01T04:51:40.408Z,99.90
2023-04-01T04:54:09.262Z,99.90
2023-04-01T04:56:58.193Z,99.90
2023-04-01T04:59:28.084Z,99.90
2023-04-01T05:02:06.199Z,99.90
2023-04-01T05:04:37.299Z,99.90
2023-04-01T05:07:07.067Z,99.90
2023-04-01T05:09:35.872Z,99.90
2023-04-01T05:12:04.634Z,99.90
2023-04-01T05:14:50.493Z,99.90
2023-04-01T05:17:19.871Z,99.90
2023-04-01T05:19:47.935Z,99.90
2023-04-01T05:22:16.477Z,99.90
2023-04-01T05:24:46.066Z,99.90
2023-04-01T05:27:14.549Z,99.90
2023-04-01T05:29:43.833Z,99.90
2023-04-01T05:32:29.085Z,99.90
2023-04-01T05:34:57.283Z,99.90
2023-04-01T05:37:25.382Z,99.90
2023-04-01T05:39:53.395Z,99.90
2023-04-01T05:42:21.557Z,99.90
2023-04-01T05:44:49.629Z,99.90
2023-04-01T05:47:37.292Z,99.90
2023-04-01T05:50:06.063Z,99.90
2023-04-01T05:52:34.277Z,99.90
2023-04-01T05:55:02.385Z,99.70
2023-04-01T05:57:30.471Z,99.60
2023-04-01T05:59:59.751Z,99.80
2023-04-01T06:02:28.662Z,99.90
2023-04-01T06:05:06.018Z,99.70
2023-04-01T06:07:34.158Z,99.50
2023-04-01T06:10:02.320Z,99.10
2023-04-01T06:12:50.932Z,99.50
2023-04-01T06:15:26.653Z,99.20
2023-04-01T06:18:17.194Z,99.20
2023-04-01T06:20:55.775Z,99.10
2023-04-01T06:23:36.770Z,98.70
2023-04-01T06:26:14.839Z,98.70
2023-04-01T06:29:13.113Z,98.90
2023-04-01T06:31:59.665Z,98.60
2023-04-01T06:34:44.896Z,98.60
2023-04-01T06:37:28.537Z,98.20
2023-04-01T06:40:14.445Z,98.10
2023-04-01T06:42:51.830Z,98.20
2023-04-01T06:45:55.590Z,98.50
2023-04-01T06:49:01.470Z,98.60
2023-04-01T06:51:55.183Z,98.80
2023-04-01T06:54:48.047Z,98.40
2023-04-01T06:57:40.866Z,98.30
2023-04-01T07:00:16.391Z,98.60
2023-04-01T07:02:54.719Z,98.40
2023-04-01T07:05:25.024Z,98.20
2023-04-01T07:07:58.558Z,98.50
2023-04-01T07:10:36.965Z,98.30
2023-04-01T07:13:29.243Z,98.50
2023-04-01T07:16:09.075Z,98.20
2023-04-01T07:18:46.821Z,98.50
2023-04-01T07:21:25.952Z,98.50
2023-04-01T07:24:01.335Z,98.10
2023-04-01T07:26:47.815Z,97.50
2023-04-01T07:29:19.558Z,98.00
2023-04-01T07:32:14.645Z,97.60
2023-04-01T07:34:52.726Z,97.40
2023-04-01T07:37:29.024Z,97.00
2023-04-01T07:40:06.362Z,97.90
2023-04-01T07:42:51.372Z,97.70
2023-04-01T07:45:29.262Z,96.90
2023-04-01T07:48:13.913Z,97.30
2023-04-01T07:50:53.297Z,96.90
2023-04-01T07:53:27.770Z,96.80
2023-04-01T07:56:07.133Z,96.30
2023-04-01T07:58:49.691Z,96.70
2023-04-01T08:01:42.183Z,96.40
2023-04-01T08:04:35.579Z,96.80
2023-04-01T08:07:10.837Z,96.40
2023-04-01T08:09:52.056Z,96.00
2023-04-01T08:12:50.084Z,96.40
2023-04-01T08:15:52.093Z,95.50
2023-04-01T08:18:38.839Z,95.10
2023-04-01T08:21:13.119Z,95.60
2023-04-01T08:23:46.823Z,94.90
2023-04-01T08:26:24.261Z,95.10
2023-04-01T08:28:57.161Z,94.30
2023-04-01T08:31:34.609Z,93.80
2023-04-01T08:34:05.781Z,94.30
2023-04-01T08:36:39.137Z,93.40
2023-04-01T08:39:25.575Z,93.80
2023-04-01T08:42:17.363Z,93.50
2023-04-01T08:45:17.575Z,93.20
2023-04-01T08:48:25.635Z,93.80
2023-04-01T08:51:22.724Z,93.30
2023-04-01T08:54:13.910Z,94.10
2023-04-01T08:56:49.658Z,93.00
2023-04-01T08:59:40.112Z,92.30
2023-04-01T09:02:51.408Z,92.60
2023-04-01T09:05:59.240Z,92.80
2023-04-01T09:08:40.761Z,92.10
2023-04-01T09:11:18.367Z,91.30
2023-04-01T09:14:29.304Z,91.60
2023-04-01T09:17:36.773Z,91.60
2023-04-01T09:20:22.223Z,92.00
2023-04-01T09:23:10.899Z,91.20
2023-04-01T09:25:53.071Z,91.90
2023-04-01T09:28:27.149Z,91.00
2023-04-01T09:31:17.383Z,91.00
2023-04-01T09:34:41.889Z,91.80
2023-04-01T09:37:21.026Z,90.60
2023-04-01T09:40:10.308Z,91.30
2023-04-01T09:42:45.970Z,90.00
2023-04-01T09:45:44.026Z,90.10
2023-04-01T09:48:23.517Z,90.20
2023-04-01T09:51:00.542Z,90.50
2023-04-01T09:53:53.177Z,88.50
2023-04-01T09:56:42.125Z,89.60
2023-04-01T09:59:32.824Z,89.10
2023-04-01T10:03:04.065Z,88.10
2023-04-01T10:06:00.162Z,88.50
2023-04-01T10:08:53.290Z,88.90
2023-04-01T10:11:59.789Z,89.50
2023-04-01T10:15:09.325Z,86.30
2023-04-01T10:18:08.215Z,87.20
2023-04-01T10:20:55.443Z,84.80
2023-04-01T10:23:52.988Z,85.40
2023-04-01T10:27:04.237Z,85.90
2023-04-01T10:30:22.187Z,87.90
2023-04-01T10:33:19.933Z,84.30
2023-04-01T10:36:42.478Z,86.50
2023-04-01T10:39:53.219Z,86.30
2023-04-01T10:43:06.726Z,86.40
2023-04-01T10:46:14.918Z,84.20
2023-04-01T10:49:28.972Z,86.70
2023-04-01T10:52:42.486Z,84.90
2023-04-01T10:55:44.540Z,85.40
2023-04-01T10:59:17.657Z,84.40
2023-04-01T11:02:35.433Z,86.30
2023-04-01T11:06:07.357Z,87.00
2023-04-01T11:09:06.185Z,85.60
2023-04-01T11:11:59.757Z,85.30
2023-04-01T11:15:16.370Z,84.10
2023-04-01T11:18:47.491Z,85.10
2023-04-01T11:21:43.997Z,84.00
2023-04-01T11:24:29.176Z,85.90
2023-04-01T11:27:39.744Z,84.00
2023-04-01T11:30:23.576Z,87.70
2023-04-01T11:32:59.541Z,85.20
2023-04-01T11:36:01.339Z,84.10
2023-04-01T11:38:48.702Z,84.00
2023-04-01T11:41:51.825Z,84.50
2023-04-01T11:44:45.153Z,85.80
2023-04-01T11:47:53.996Z,84.60
2023-04-01T11:50:35.573Z,85.30
2023-04-01T11:53:18.528Z,85.80
2023-04-01T11:55:58.707Z,86.20
2023-04-01T11:58:46.099Z,85.90
2023-04-01T12:01:27.164Z,87.30
2023-04-01T12:04:14.039Z,85.40
2023-04-01T12:06:51.852Z,86.30
2023-04-01T12:09:26.460Z,87.90
2023-04-01T12:12:13.056Z,87.70
2023-04-01T12:14:51.284Z,90.10
2023-04-01T12:17:33.553Z,89.00
2023-04-01T12:20:16.630Z,90.10
2023-04-01T12:22:59.651Z,88.10
2023-04-01T12:25:53.307Z,88.70
2023-04-01T12:28:27.926Z,90.00
2023-04-01T12:31:16.482Z,88.00
2023-04-01T12:33:54.756Z,89.00
2023-04-01T12:36:51.617Z,89.90
2023-04-01T12:39:49.406Z,88.30
2023-04-01T12:42:31.422Z,88.50
2023-04-01T12:45:21.719Z,90.20
2023-04-01T12:48:11.283Z,91.80
2023-04-01T12:51:05.265Z,95.20
2023-04-01T12:53:46.997Z,99.90
2023-04-01T12:56:24.190Z,99.90
2023-04-01T12:59:09.964Z,99.90
2023-04-01T13:02:01.888Z,99.90
2023-04-01T13:05:00.501Z,99.90
2023-04-01T13:07:58.490Z,99.90
2023-04-01T13:10:44.007Z,99.90
2023-04-01T13:13:31.972Z,99.90
2023-04-01T13:16:09.932Z,99.90
2023-04-01T13:18:46.014Z,99.90
2023-04-01T13:21:23.706Z,99.90
2023-04-01T13:24:00.303Z,99.90
2023-04-01T13:26:36.296Z,99.90
2023-04-01T13:29:09.605Z,99.90
2023-04-01T13:31:52.894Z,99.90
2023-04-01T13:34:35.197Z,99.90
2023-04-01T13:37:18.067Z,99.90
2023-04-01T13:40:04.909Z,99.90
2023-04-01T13:42:39.268Z,99.90
2023-04-01T13:45:17.426Z,99.90
2023-04-01T13:48:18.664Z,99.90
2023-04-01T13:51:12.245Z,99.90
2023-04-01T13:54:07.688Z,99.90
2023-04-01T13:56:44.808Z,99.90
2023-04-01T13:59:31.993Z,99.90
2023-04-01T14:02:19.724Z,99.90
2023-04-01T14:05:11.032Z,99.90
2023-04-01T14:07:52.174Z,99.90
2023-04-01T14:10:25.470Z,99.90
2023-04-01T14:13:01.147Z,99.90
2023-04-01T14:15:48.481Z,99.90
2023-04-01T14:19:00.431Z,99.90
2023-04-01T14:21:40.340Z,99.90
2023-04-01T14:24:34.469Z,99.90
2023-04-01T14:27:44.568Z,99.90
2023-04-01T14:30:38.556Z,99.90
2023-04-01T14:33:21.150Z,99.90
2023-04-01T14:35:58.233Z,99.90
2023-04-01T14:38:36.044Z,99.90
2023-04-01T14:41:19.012Z,99.90
2023-04-01T14:44:05.458Z,99.90
2023-04-01T14:47:05.336Z,99.90
2023-04-01T14:49:37.325Z,99.90
2023-04-01T14:52:16.041Z,99.90
2023-04-01T14:54:49.318Z,99.90
2023-04-01T14:57:24.986Z,99.90
2023-04-01T14:59:56.327Z,99.90
2023-04-01T15:02:40.872Z,99.90
2023-04-01T15:05:21.151Z,99.90
2023-04-01T15:08:18.746Z,99.90
2023-04-01T15:11:23.354Z,99.90
2023-04-01T15:14:18.662Z,99.90
2023-04-01T15:16:57.783Z,99.90
2023-04-01T15:19:41.087Z,99.90
2023-04-01T15:22:34.851Z,99.90
2023-04-01T15:25:33.025Z,99.90
2023-04-01T15:28:09.064Z,99.90
2023-04-01T15:30:51.168Z,99.90
2023-04-01T15:33:28.548Z,99.90
2023-04-01T15:36:07.552Z,99.90
2023-04-01T15:38:40.551Z,99.90
2023-04-01T15:41:18.026Z,99.90
2023-04-01T15:43:50.126Z,99.90
2023-04-01T15:46:42.332Z,99.90
2023-04-01T15:49:25.299Z,99.90
2023-04-01T15:52:08.572Z,99.90
2023-04-01T15:55:07.391Z,99.90
2023-04-01T15:57:46.099Z,99.90
2023-04-01T16:00:31.063Z,99.90
2023-04-01T16:03:21.344Z,99.90
2023-04-01T16:06:13.794Z,99.90
2023-04-01T16:08:58.722Z,99.90
2023-04-01T16:11:41.692Z,99.90
2023-04-01T16:14:20.782Z,99.90
2023-04-01T16:16:57.876Z,99.90
2023-04-01T16:19:43.678Z,99.90
2023-04-01T16:22:19.142Z,99.90
2023-04-01T16:24:53.124Z,99.90
2023-04-01T16:27:29.440Z,99.90
2023-04-01T16:30:02.447Z,99.90
2023-04-01T16:32:40.169Z,99.90
2023-04-01T16:35:25.241Z,99.90
2023-04-01T16:37:56.154Z,99.90
2023-04-01T16:40:36.075Z,99.90
2023-04-01T16:43:13.474Z,99.90
2023-04-01T16:45:46.156Z,99.90
2023-04-01T16:48:17.665Z,99.90
2023-04-01T16:50:55.592Z,99.90
2023-04-01T16:53:36.594Z,99.90
2023-04-01T16:56:13.352Z,99.90
2023-04-01T16:58:45.551Z,99.90
2023-04-01T17:01:18.308Z,99.90
2023-04-01T17:03:51.661Z,99.90
2023-04-01T17:06:32.049Z,99.90
2023-04-01T17:09:13.307Z,99.90
2023-04-01T17:11:48.255Z,99.90
2023-04-01T17:14:25.893Z,99.90
2023-04-01T17:17:03.687Z,99.90
2023-04-01T17:20:02.204Z,99.90
2023-04-01T17:22:36.212Z,99.90
2023-04-01T17:25:24.163Z,99.90
2023-04-01T17:27:57.405Z,99.90
2023-04-01T17:30:34.554Z,99.90
2023-04-01T17:33:25.675Z,99.90
2023-04-01T17:36:01.093Z,99.90
2023-04-01T17:38:51.409Z,99.90
2023-04-01T17:41:31.043Z,99.90
2023-04-01T17:44:08.047Z,99.90
2023-04-01T17:46:58.903Z,99.90
2023-04-01T17:49:33.191Z,99.90
2023-04-01T17:52:12.840Z,99.90
2023-04-01T17:54:48.811Z,99.90
2023-04-01T17:57:33.361Z,99.90
2023-04-01T18:00:05.882Z,99.90
2023-04-01T18:02:56.089Z,99.90
2023-04-01T18:05:32.781Z,99.90
2023-04-01T18:08:26.033Z,99.90
2023-04-01T18:11:02.620Z,99.90
2023-04-01T18:13:55.595Z,99.90
2023-04-01T18:16:32.253Z,99.90
2023-04-01T18:19:10.484Z,99.90
2023-04-01T18:21:47.919Z,99.90
2023-04-01T18:24:23.657Z,99.90
2023-04-01T18:27:01.372Z,99.90
2023-04-01T18:29:39.463Z,99.90
2023-04-01T18:32:20.380Z,99.90
2023-04-01T18:35:03.593Z,99.90
2023-04-01T18:37:36.120Z,99.90
2023-04-01T18:40:19.917Z,99.90
2023-04-01T18:42:58.033Z,99.90
2023-04-01T18:45:30.930Z,99.90
2023-04-01T18:48:10.754Z,99.90
2023-04-01T18:50:44.843Z,99.90
2023-04-01T18:53:22.830Z,99.90
2023-04-01T18:55:57.452Z,99.90
2023-04-01T18:58:34.450Z,99.90
2023-04-01T19:01:25.666Z,99.90
2023-04-01T19:04:02.235Z,99.90
2023-04-01T19:06:35.718Z,99.90
2023-04-01T19:09:20.744Z,99.90
2023-04-01T19:12:18.201Z,99.90
2023-04-01T19:15:02.544Z,99.90
2023-04-01T19:17:47.390Z,99.90
2023-04-01T19:20:22.209Z,99.90
2023-04-01T19:23:16.894Z,99.90
2023-04-01T19:25:48.448Z,99.90
2023-04-01T19:28:32.229Z,99.90
2023-04-01T19:31:05.491Z,99.90
2023-04-01T19:33:54.869Z,99.90
2023-04-01T19:36:31.655Z,99.90
2023-04-01T19:39:10.451Z,99.90
2023-04-01T19:41:42.646Z,99.90
2023-04-01T19:44:32.075Z,99.90
2023-04-01T19:47:09.271Z,99.90
2023-04-01T19:49:50.415Z,99.90
2023-04-01T19:52:26.031Z,99.90
2023-04-01T19:54:59.219Z,99.90
2023-04-01T19:57:34.789Z,99.90
2023-04-01T20:00:09.482Z,99.90
2023-04-01T20:03:00.472Z,99.90
2023-04-01T20:05:48.646Z,99.90
2023-04-01T20:08:24.660Z,99.90
2023-04-01T20:11:03.907Z,99.90
2023-04-01T20:13:41.476Z,99.90
2023-04-01T20:16:12.019Z,99.90
2023-04-01T20:18:47.505Z,99.90
2023-04-01T20:21:32.394Z,99.90
2023-04-01T20:24:03.825Z,99.90
2023-04-01T20:26:35.515Z,99.90
2023-04-01T20:29:21.518Z,99.90
2023-04-01T20:32:07.552Z,99.90
2023-04-01T20:34:52.271Z,99.90
2023-04-01T20:37:39.742Z,99.90
2023-04-01T20:40:26.500Z,99.90
2023-04-01T20:43:31.196Z,99.90
2023-04-01T20:46:01.667Z,99.90
2023-04-01T20:48:48.961Z,99.90
2023-04-01T20:51:20.173Z,99.90
2023-04-01T20:53:53.294Z,99.90
2023-04-01T20:56:38.208Z,99.90
2023-04-01T20:59:27.499Z,99.90
2023-04-01T21:02:12.967Z,99.90
2023-04-01T21:05:09.624Z,99.90
2023-04-01T21:07:43.874Z,99.90
2023-04-01T21:10:30.582Z,99.90
2023-04-01T21:13:10.372Z,99.90
2023-04-01T21:16:09.778Z,99.90
2023-04-01T21:18:51.899Z,99.90
2023-04-01T21:21:51.545Z,99.90
2023-04-01T21:25:01.493Z,99.90
2023-04-01T21:27:42.329Z,99.90
2023-04-01T21:30:27.124Z,99.90
2023-04-01T21:33:17.366Z,99.90
2023-04-01T21:35:54.584Z,99.90
2023-04-01T21:38:43.360Z,99.90
2023-04-01T21:41:39.137Z,99.90
2023-04-01T21:44:28.731Z,99.90
2023-04-01T21:47:38.776Z,99.90
2023-04-01T21:50:41.892Z,99.90
2023-04-01T21:53:36.369Z,99.90
2023-04-01T21:59:24.942Z,99.90
2023-04-01T22:02:36.717Z,99.90
2023-04-01T22:05:12.129Z,99.90
2023-04-01T22:07:48.686Z,99.90
2023-04-01T22:10:25.149Z,99.90
2023-04-01T22:12:56.874Z,99.90
2023-04-01T22:15:47.505Z,99.90
2023-04-01T22:18:23.179Z,99.90
2023-04-01T22:21:06.100Z,99.90
2023-04-01T22:23:40.532Z,99.90
2023-04-01T22:26:16.293Z,99.90
2023-04-01T22:28:53.601Z,99.90
2023-04-01T22:31:28.939Z,99.90
2023-04-01T22:34:07.302Z,99.90
2023-04-01T22:36:43.768Z,99.90
2023-04-01T22:39:34.788Z,99.90
2023-04-01T22:42:11.588Z,99.90
2023-04-01T22:44:54.696Z,99.90
2023-04-01T22:47:31.177Z,99.90
2023-04-01T22:50:05.662Z,99.90
2023-04-01T22:52:37.843Z,99.90
2023-04-01T22:55:13.846Z,99.90
2023-04-01T22:57:48.321Z,99.90
2023-04-01T23:00:20.766Z,99.90
2023-04-01T23:03:09.041Z,99.90
2023-04-01T23:05:41.891Z,99.90
2023-04-01T23:08:38.330Z,99.90
2023-04-01T23:11:09.013Z,99.90
2023-04-01T23:13:41.142Z,99.90
2023-04-01T23:16:10.574Z,99.90
2023-04-01T23:18:52.660Z,99.90
2023-04-01T23:21:28.750Z,99.90
2023-04-01T23:24:05.436Z,99.90
2023-04-01T23:26:38.763Z,99.90
2023-04-01T23:29:14.314Z,99.90
2023-04-01T23:31:43.467Z,99.90
2023-04-01T23:34:32.107Z,99.90
2023-04-01T23:37:04.639Z,99.90
2023-04-01T23:39:35.467Z,99.90
2023-04-01T23:42:06.883Z,99.90
2023-04-01T23:44:37.234Z,99.90
2023-04-01T23:47:07.829Z,99.90
2023-04-01T23:49:41.128Z,99.90
2023-04-01T23:52:15.733Z,99.90
2023-04-01T23:54:46.641Z,99.90
2023-04-01T23:57:17.334Z,99.90
2023-04-01T23:59:45.711Z,99.90
